sensor_id;sensor_type;location;lat;lon;timestamp;temperature;humidity
34644;DHT22;26931;43.498;-1.506;2022-12-29T00:00:01;16.70;76.90
34644;DHT22;26931;43.498;-1.506;2022-12-29T00:02:26;16.70;76.90
34644;DHT22;26931;43.498;-1.506;2022-12-29T00:04:52;16.70;76.80
34644;DHT22;26931;43.498;-1.506;2022-12-29T00:07:18;16.80;76.80
34644;DHT22;26931;43.498;-1.506;2022-12-29T00:09:44;16.80;76.80
34644;DHT22;26931;43.498;-1.506;2022-12-29T00:12:10;16.80;76.80
34644;DHT22;26931;43.498;-1.506;2022-12-29T00:14:36;16.80;76.80
34644;DHT22;26931;43.498;-1.506;2022-12-29T00:17:20;16.80;76.60
34644;DHT22;26931;43.498;-1.506;2022-12-29T00:19:45;16.90;76.60
34644;DHT22;26931;43.498;-1.506;2022-12-29T00:22:30;16.90;77.20
34644;DHT22;26931;43.498;-1.506;2022-12-29T00:25:14;16.90;76.30
34644;DHT22;26931;43.498;-1.506;2022-12-29T00:27:58;16.90;76.20
34644;DHT22;26931;43.498;-1.506;2022-12-29T00:30:42;16.80;76.10
34644;DHT22;26931;43.498;-1.506;2022-12-29T00:33:30;16.80;76.00
34644;DHT22;26931;43.498;-1.506;2022-12-29T00:38:45;16.90;76.20
34644;DHT22;26931;43.498;-1.506;2022-12-29T00:41:30;16.90;76.10
34644;DHT22;26931;43.498;-1.506;2022-12-29T00:44:14;16.90;76.00
34644;DHT22;26931;43.498;-1.506;2022-12-29T00:46:41;16.90;75.80
34644;DHT22;26931;43.498;-1.506;2022-12-29T00:49:07;16.90;75.80
34644;DHT22;26931;43.498;-1.506;2022-12-29T00:51:52;16.90;75.80
34644;DHT22;26931;43.498;-1.506;2022-12-29T00:54:18;16.90;75.80
34644;DHT22;26931;43.498;-1.506;2022-12-29T00:56:45;16.90;75.70
34644;DHT22;26931;43.498;-1.506;2022-12-29T00:59:11;16.90;76.60
34644;DHT22;26931;43.498;-1.506;2022-12-29T01:01:37;16.90;75.70
34644;DHT22;26931;43.498;-1.506;2022-12-29T01:04:03;16.90;75.70
34644;DHT22;26931;43.498;-1.506;2022-12-29T01:06:29;16.80;75.60
34644;DHT22;26931;43.498;-1.506;2022-12-29T01:08:55;16.90;75.60
34644;DHT22;26931;43.498;-1.506;2022-12-29T01:11:39;16.90;75.60
34644;DHT22;26931;43.498;-1.506;2022-12-29T01:14:05;16.90;75.70
34644;DHT22;26931;43.498;-1.506;2022-12-29T01:16:31;16.90;75.70
34644;DHT22;26931;43.498;-1.506;2022-12-29T01:18:57;16.90;75.60
34644;DHT22;26931;43.498;-1.506;2022-12-29T01:21:23;16.90;75.60
34644;DHT22;26931;43.498;-1.506;2022-12-29T01:23:52;16.90;75.70
34644;DHT22;26931;43.498;-1.506;2022-12-29T01:26:18;16.90;75.60
34644;DHT22;26931;43.498;-1.506;2022-12-29T01:28:44;16.90;75.70
34644;DHT22;26931;43.498;-1.506;2022-12-29T01:31:11;16.90;75.80
34644;DHT22;26931;43.498;-1.506;2022-12-29T01:33:38;16.80;75.70
34644;DHT22;26931;43.498;-1.506;2022-12-29T01:36:08;16.90;75.80
34644;DHT22;26931;43.498;-1.506;2022-12-29T01:38:35;16.90;75.90
34644;DHT22;26931;43.498;-1.506;2022-12-29T01:41:00;16.90;75.80
34644;DHT22;26931;43.498;-1.506;2022-12-29T01:43:40;16.80;75.70
34644;DHT22;26931;43.498;-1.506;2022-12-29T01:46:20;16.90;75.90
34644;DHT22;26931;43.498;-1.506;2022-12-29T01:48:49;16.90;75.90
34644;DHT22;26931;43.498;-1.506;2022-12-29T01:51:16;16.90;75.90
34644;DHT22;26931;43.498;-1.506;2022-12-29T01:53:42;16.90;75.90
34644;DHT22;26931;43.498;-1.506;2022-12-29T01:56:09;16.90;75.90
34644;DHT22;26931;43.498;-1.506;2022-12-29T01:58:37;16.90;75.90
34644;DHT22;26931;43.498;-1.506;2022-12-29T02:01:04;17.10;76.00
34644;DHT22;26931;43.498;-1.506;2022-12-29T02:03:30;16.90;75.90
34644;DHT22;26931;43.498;-1.506;2022-12-29T02:05:59;16.90;75.90
34644;DHT22;26931;43.498;-1.506;2022-12-29T02:08:28;16.90;75.90
34644;DHT22;26931;43.498;-1.506;2022-12-29T02:10:55;17.10;75.90
34644;DHT22;26931;43.498;-1.506;2022-12-29T02:13:23;17.00;75.80
34644;DHT22;26931;43.498;-1.506;2022-12-29T02:21:01;17.00;75.60
34644;DHT22;26931;43.498;-1.506;2022-12-29T02:28:59;17.00;75.60
34644;DHT22;26931;43.498;-1.506;2022-12-29T02:36:49;16.90;75.40
34644;DHT22;26931;43.498;-1.506;2022-12-29T02:42:08;17.00;75.40
34644;DHT22;26931;43.498;-1.506;2022-12-29T02:52:25;16.90;75.50
34644;DHT22;26931;43.498;-1.506;2022-12-29T02:54:53;16.80;75.50
34644;DHT22;26931;43.498;-1.506;2022-12-29T02:59:48;16.90;75.60
34644;DHT22;26931;43.498;-1.506;2022-12-29T03:10:15;16.80;75.60
34644;DHT22;26931;43.498;-1.506;2022-12-29T03:12:50;16.70;75.60
34644;DHT22;26931;43.498;-1.506;2022-12-29T03:15:43;16.70;75.70
34644;DHT22;26931;43.498;-1.506;2022-12-29T03:21:19;16.70;75.80
34644;DHT22;26931;43.498;-1.506;2022-12-29T03:23:47;16.90;76.00
34644;DHT22;26931;43.498;-1.506;2022-12-29T03:26:16;16.60;75.80
34644;DHT22;26931;43.498;-1.506;2022-12-29T03:28:48;16.70;76.00
34644;DHT22;26931;43.498;-1.506;2022-12-29T03:31:16;16.60;76.00
34644;DHT22;26931;43.498;-1.506;2022-12-29T03:33:42;16.70;76.00
34644;DHT22;26931;43.498;-1.506;2022-12-29T03:36:10;16.60;76.00
34644;DHT22;26931;43.498;-1.506;2022-12-29T03:41:07;16.60;76.00
34644;DHT22;26931;43.498;-1.506;2022-12-29T03:43:33;16.60;76.10
34644;DHT22;26931;43.498;-1.506;2022-12-29T03:46:00;16.50;76.10
34644;DHT22;26931;43.498;-1.506;2022-12-29T03:48:25;16.60;76.10
34644;DHT22;26931;43.498;-1.506;2022-12-29T03:50:51;16.60;76.10
34644;DHT22;26931;43.498;-1.506;2022-12-29T03:53:17;16.50;76.00
34644;DHT22;26931;43.498;-1.506;2022-12-29T03:55:43;16.50;76.20
34644;DHT22;26931;43.498;-1.506;2022-12-29T03:58:08;16.50;76.30
34644;DHT22;26931;43.498;-1.506;2022-12-29T04:00:34;16.50;76.40
34644;DHT22;26931;43.498;-1.506;2022-12-29T04:03:00;16.40;76.40
34644;DHT22;26931;43.498;-1.506;2022-12-29T04:05:25;16.40;76.60
34644;DHT22;26931;43.498;-1.506;2022-12-29T04:07:51;16.50;77.40
34644;DHT22;26931;43.498;-1.506;2022-12-29T04:10:17;16.50;78.50
34644;DHT22;26931;43.498;-1.506;2022-12-29T04:12:43;16.50;79.70
34644;DHT22;26931;43.498;-1.506;2022-12-29T04:15:11;16.50;80.80
34644;DHT22;26931;43.498;-1.506;2022-12-29T04:17:36;16.50;81.80
34644;DHT22;26931;43.498;-1.506;2022-12-29T04:20:02;16.50;82.50
34644;DHT22;26931;43.498;-1.506;2022-12-29T04:22:58;16.60;83.30
34644;DHT22;26931;43.498;-1.506;2022-12-29T04:25:24;16.60;84.20
34644;DHT22;26931;43.498;-1.506;2022-12-29T04:27:50;16.60;84.90
34644;DHT22;26931;43.498;-1.506;2022-12-29T04:30:15;16.60;85.50
34644;DHT22;26931;43.498;-1.506;2022-12-29T04:32:41;16.60;86.20
34644;DHT22;26931;43.498;-1.506;2022-12-29T04:35:07;16.60;86.80
34644;DHT22;26931;43.498;-1.506;2022-12-29T04:37:33;16.60;87.40
34644;DHT22;26931;43.498;-1.506;2022-12-29T04:39:59;16.60;87.80
34644;DHT22;26931;43.498;-1.506;2022-12-29T04:42:24;16.60;88.40
34644;DHT22;26931;43.498;-1.506;2022-12-29T04:44:50;16.50;88.80
34644;DHT22;26931;43.498;-1.506;2022-12-29T04:47:16;16.50;89.20
34644;DHT22;26931;43.498;-1.506;2022-12-29T04:49:42;16.50;89.70
34644;DHT22;26931;43.498;-1.506;2022-12-29T04:52:08;16.50;90.00
34644;DHT22;26931;43.498;-1.506;2022-12-29T04:54:33;16.50;90.20
34644;DHT22;26931;43.498;-1.506;2022-12-29T04:56:59;16.50;90.40
34644;DHT22;26931;43.498;-1.506;2022-12-29T04:59:25;16.50;90.60
34644;DHT22;26931;43.498;-1.506;2022-12-29T05:01:51;16.50;90.80
34644;DHT22;26931;43.498;-1.506;2022-12-29T05:04:17;16.40;90.90
34644;DHT22;26931;43.498;-1.506;2022-12-29T05:06:43;16.40;91.10
34644;DHT22;26931;43.498;-1.506;2022-12-29T05:09:08;16.40;91.30
34644;DHT22;26931;43.498;-1.506;2022-12-29T05:11:34;16.40;91.40
34644;DHT22;26931;43.498;-1.506;2022-12-29T05:14:00;16.40;91.60
34644;DHT22;26931;43.498;-1.506;2022-12-29T05:16:26;16.20;91.70
34644;DHT22;26931;43.498;-1.506;2022-12-29T05:18:52;16.40;91.90
34644;DHT22;26931;43.498;-1.506;2022-12-29T05:21:17;16.40;92.10
34644;DHT22;26931;43.498;-1.506;2022-12-29T05:23:43;16.30;92.20
34644;DHT22;26931;43.498;-1.506;2022-12-29T05:26:09;16.30;92.30
34644;DHT22;26931;43.498;-1.506;2022-12-29T05:28:35;16.30;92.50
34644;DHT22;26931;43.498;-1.506;2022-12-29T05:31:00;16.40;92.60
34644;DHT22;26931;43.498;-1.506;2022-12-29T05:33:26;16.50;92.70
34644;DHT22;26931;43.498;-1.506;2022-12-29T05:35:52;16.30;92.70
34644;DHT22;26931;43.498;-1.506;2022-12-29T05:38:18;16.50;92.80
34644;DHT22;26931;43.498;-1.506;2022-12-29T05:40:44;16.30;92.90
34644;DHT22;26931;43.498;-1.506;2022-12-29T05:43:10;16.30;92.90
34644;DHT22;26931;43.498;-1.506;2022-12-29T05:45:36;16.30;93.00
34644;DHT22;26931;43.498;-1.506;2022-12-29T05:48:02;16.30;93.10
34644;DHT22;26931;43.498;-1.506;2022-12-29T05:50:28;16.30;93.20
34644;DHT22;26931;43.498;-1.506;2022-12-29T05:52:53;16.30;93.20
34644;DHT22;26931;43.498;-1.506;2022-12-29T05:55:19;16.30;93.20
34644;DHT22;26931;43.498;-1.506;2022-12-29T05:57:45;16.30;93.20
34644;DHT22;26931;43.498;-1.506;2022-12-29T06:00:11;16.40;93.20
34644;DHT22;26931;43.498;-1.506;2022-12-29T06:02:37;16.30;93.20
34644;DHT22;26931;43.498;-1.506;2022-12-29T06:05:03;16.20;93.30
34644;DHT22;26931;43.498;-1.506;2022-12-29T06:07:28;16.20;93.40
34644;DHT22;26931;43.498;-1.506;2022-12-29T06:09:54;16.40;93.60
34644;DHT22;26931;43.498;-1.506;2022-12-29T06:12:20;16.20;93.60
34644;DHT22;26931;43.498;-1.506;2022-12-29T06:14:45;16.20;93.70
34644;DHT22;26931;43.498;-1.506;2022-12-29T06:17:11;16.10;93.70
34644;DHT22;26931;43.498;-1.506;2022-12-29T06:19:37;16.00;93.70
34644;DHT22;26931;43.498;-1.506;2022-12-29T06:22:03;16.10;93.80
34644;DHT22;26931;43.498;-1.506;2022-12-29T06:24:28;16.10;93.90
34644;DHT22;26931;43.498;-1.506;2022-12-29T06:26:54;16.00;93.90
34644;DHT22;26931;43.498;-1.506;2022-12-29T06:29:20;16.00;93.90
34644;DHT22;26931;43.498;-1.506;2022-12-29T06:31:47;16.00;94.00
34644;DHT22;26931;43.498;-1.506;2022-12-29T06:34:14;15.80;94.00
34644;DHT22;26931;43.498;-1.506;2022-12-29T06:36:39;15.80;94.20
34644;DHT22;26931;43.498;-1.506;2022-12-29T06:39:05;15.80;94.30
34644;DHT22;26931;43.498;-1.506;2022-12-29T06:41:31;15.80;94.30
34644;DHT22;26931;43.498;-1.506;2022-12-29T06:43:57;15.90;94.80
34644;DHT22;26931;43.498;-1.506;2022-12-29T06:46:23;15.70;94.40
34644;DHT22;26931;43.498;-1.506;2022-12-29T06:48:49;15.70;94.50
34644;DHT22;26931;43.498;-1.506;2022-12-29T06:51:14;15.60;94.50
34644;DHT22;26931;43.498;-1.506;2022-12-29T06:53:40;15.60;94.60
34644;DHT22;26931;43.498;-1.506;2022-12-29T06:56:06;15.60;94.60
34644;DHT22;26931;43.498;-1.506;2022-12-29T06:58:32;15.60;94.70
34644;DHT22;26931;43.498;-1.506;2022-12-29T07:00:58;15.50;94.70
34644;DHT22;26931;43.498;-1.506;2022-12-29T07:03:23;15.50;94.70
34644;DHT22;26931;43.498;-1.506;2022-12-29T07:05:49;15.50;94.80
34644;DHT22;26931;43.498;-1.506;2022-12-29T07:08:14;15.40;94.80
34644;DHT22;26931;43.498;-1.506;2022-12-29T07:10:40;15.20;94.80
34644;DHT22;26931;43.498;-1.506;2022-12-29T07:13:06;15.30;94.90
34644;DHT22;26931;43.498;-1.506;2022-12-29T07:15:33;15.30;94.90
34644;DHT22;26931;43.498;-1.506;2022-12-29T07:17:59;15.30;95.20
34644;DHT22;26931;43.498;-1.506;2022-12-29T07:20:25;15.30;95.00
34644;DHT22;26931;43.498;-1.506;2022-12-29T07:22:51;15.30;95.00
34644;DHT22;26931;43.498;-1.506;2022-12-29T07:25:16;15.10;95.00
34644;DHT22;26931;43.498;-1.506;2022-12-29T07:27:42;15.30;95.10
34644;DHT22;26931;43.498;-1.506;2022-12-29T07:30:08;15.30;95.10
34644;DHT22;26931;43.498;-1.506;2022-12-29T07:32:34;15.20;95.20
34644;DHT22;26931;43.498;-1.506;2022-12-29T07:34:59;15.20;95.20
34644;DHT22;26931;43.498;-1.506;2022-12-29T07:37:25;15.20;95.30
34644;DHT22;26931;43.498;-1.506;2022-12-29T07:39:51;15.10;95.30
34644;DHT22;26931;43.498;-1.506;2022-12-29T07:42:16;15.20;95.30
34644;DHT22;26931;43.498;-1.506;2022-12-29T07:44:42;15.10;95.20
34644;DHT22;26931;43.498;-1.506;2022-12-29T07:47:08;15.10;95.30
34644;DHT22;26931;43.498;-1.506;2022-12-29T07:49:33;15.10;95.70
34644;DHT22;26931;43.498;-1.506;2022-12-29T07:51:59;15.10;95.40
34644;DHT22;26931;43.498;-1.506;2022-12-29T07:54:25;15.10;95.50
34644;DHT22;26931;43.498;-1.506;2022-12-29T07:56:50;15.10;95.50
34644;DHT22;26931;43.498;-1.506;2022-12-29T07:59:16;15.10;95.60
34644;DHT22;26931;43.498;-1.506;2022-12-29T08:01:41;15.10;95.60
34644;DHT22;26931;43.498;-1.506;2022-12-29T08:04:07;14.90;95.50
34644;DHT22;26931;43.498;-1.506;2022-12-29T08:06:33;15.10;95.60
34644;DHT22;26931;43.498;-1.506;2022-12-29T08:08:58;15.10;95.60
34644;DHT22;26931;43.498;-1.506;2022-12-29T08:11:25;15.10;95.70
34644;DHT22;26931;43.498;-1.506;2022-12-29T08:13:51;15.10;95.70
34644;DHT22;26931;43.498;-1.506;2022-12-29T08:16:16;15.10;95.80
34644;DHT22;26931;43.498;-1.506;2022-12-29T08:18:42;15.10;95.80
34644;DHT22;26931;43.498;-1.506;2022-12-29T08:21:07;15.10;95.80
34644;DHT22;26931;43.498;-1.506;2022-12-29T08:23:33;15.10;95.80
34644;DHT22;26931;43.498;-1.506;2022-12-29T08:25:59;15.10;95.80
34644;DHT22;26931;43.498;-1.506;2022-12-29T08:28:25;15.10;95.90
34644;DHT22;26931;43.498;-1.506;2022-12-29T08:30:51;14.90;95.90
34644;DHT22;26931;43.498;-1.506;2022-12-29T08:33:17;15.00;95.90
34644;DHT22;26931;43.498;-1.506;2022-12-29T08:35:42;15.00;95.90
34644;DHT22;26931;43.498;-1.506;2022-12-29T08:38:08;15.00;96.00
34644;DHT22;26931;43.498;-1.506;2022-12-29T08:40:36;15.00;96.00
34644;DHT22;26931;43.498;-1.506;2022-12-29T08:43:02;15.00;96.10
34644;DHT22;26931;43.498;-1.506;2022-12-29T08:45:28;15.00;96.10
34644;DHT22;26931;43.498;-1.506;2022-12-29T08:47:53;15.00;96.10
34644;DHT22;26931;43.498;-1.506;2022-12-29T08:50:19;15.10;96.10
34644;DHT22;26931;43.498;-1.506;2022-12-29T08:52:44;15.10;96.10
34644;DHT22;26931;43.498;-1.506;2022-12-29T08:55:10;15.00;96.10
34644;DHT22;26931;43.498;-1.506;2022-12-29T08:57:35;15.10;96.10
34644;DHT22;26931;43.498;-1.506;2022-12-29T09:00:01;15.00;96.10
34644;DHT22;26931;43.498;-1.506;2022-12-29T09:02:27;15.10;96.10
34644;DHT22;26931;43.498;-1.506;2022-12-29T09:04:53;15.20;96.40
34644;DHT22;26931;43.498;-1.506;2022-12-29T09:07:19;15.20;96.00
34644;DHT22;26931;43.498;-1.506;2022-12-29T09:09:44;15.20;96.00
34644;DHT22;26931;43.498;-1.506;2022-12-29T09:12:10;15.30;95.90
34644;DHT22;26931;43.498;-1.506;2022-12-29T09:14:36;15.30;95.80
34644;DHT22;26931;43.498;-1.506;2022-12-29T09:17:02;15.30;95.70
34644;DHT22;26931;43.498;-1.506;2022-12-29T09:19:46;15.40;95.60
34644;DHT22;26931;43.498;-1.506;2022-12-29T09:22:12;15.40;95.40
34644;DHT22;26931;43.498;-1.506;2022-12-29T09:24:37;15.50;95.30
34644;DHT22;26931;43.498;-1.506;2022-12-29T09:27:03;15.50;95.10
34644;DHT22;26931;43.498;-1.506;2022-12-29T09:29:28;15.40;94.90
34644;DHT22;26931;43.498;-1.506;2022-12-29T09:31:54;15.60;94.80
34644;DHT22;26931;43.498;-1.506;2022-12-29T09:34:20;15.60;94.60
34644;DHT22;26931;43.498;-1.506;2022-12-29T09:36:46;15.60;94.40
34644;DHT22;26931;43.498;-1.506;2022-12-29T09:39:12;15.70;94.30
34644;DHT22;26931;43.498;-1.506;2022-12-29T09:47:24;15.70;93.80
34644;DHT22;26931;43.498;-1.506;2022-12-29T09:55:24;16.10;93.30
34644;DHT22;26931;43.498;-1.506;2022-12-29T09:58:02;16.00;93.00
34644;DHT22;26931;43.498;-1.506;2022-12-29T10:03:15;16.00;92.70
34644;DHT22;26931;43.498;-1.506;2022-12-29T10:06:04;16.10;92.60
34644;DHT22;26931;43.498;-1.506;2022-12-29T10:08:37;16.10;92.50
34644;DHT22;26931;43.498;-1.506;2022-12-29T10:16:17;16.30;92.10
34644;DHT22;26931;43.498;-1.506;2022-12-29T10:24:02;16.40;91.70
34644;DHT22;26931;43.498;-1.506;2022-12-29T10:26:31;16.40;91.60
34644;DHT22;26931;43.498;-1.506;2022-12-29T10:28:58;16.40;91.50
34644;DHT22;26931;43.498;-1.506;2022-12-29T10:31:35;16.50;91.50
34644;DHT22;26931;43.498;-1.506;2022-12-29T10:34:05;16.50;91.40
34644;DHT22;26931;43.498;-1.506;2022-12-29T10:36:38;16.60;91.30
34644;DHT22;26931;43.498;-1.506;2022-12-29T10:39:06;16.60;91.20
34644;DHT22;26931;43.498;-1.506;2022-12-29T10:44:30;16.70;91.00
34644;DHT22;26931;43.498;-1.506;2022-12-29T10:47:02;16.60;91.10
34644;DHT22;26931;43.498;-1.506;2022-12-29T10:49:30;16.70;90.70
34644;DHT22;26931;43.498;-1.506;2022-12-29T10:51:57;16.80;90.70
34644;DHT22;26931;43.498;-1.506;2022-12-29T10:54:36;16.80;90.60
34644;DHT22;26931;43.498;-1.506;2022-12-29T10:59:41;16.80;90.30
34644;DHT22;26931;43.498;-1.506;2022-12-29T11:07:15;16.90;90.00
34644;DHT22;26931;43.498;-1.506;2022-12-29T11:09:41;16.90;89.70
34644;DHT22;26931;43.498;-1.506;2022-12-29T11:15:00;17.10;89.40
34644;DHT22;26931;43.498;-1.506;2022-12-29T11:17:26;17.00;89.10
34644;DHT22;26931;43.498;-1.506;2022-12-29T11:19:52;17.00;88.70
34644;DHT22;26931;43.498;-1.506;2022-12-29T11:22:25;17.10;88.60
34644;DHT22;26931;43.498;-1.506;2022-12-29T11:24:52;17.10;88.40
34644;DHT22;26931;43.498;-1.506;2022-12-29T11:27:25;17.20;88.20
34644;DHT22;26931;43.498;-1.506;2022-12-29T11:29:52;17.20;87.90
34644;DHT22;26931;43.498;-1.506;2022-12-29T11:32:22;17.20;87.60
34644;DHT22;26931;43.498;-1.506;2022-12-29T11:34:48;17.40;87.40
34644;DHT22;26931;43.498;-1.506;2022-12-29T11:37:16;17.40;87.00
34644;DHT22;26931;43.498;-1.506;2022-12-29T11:42:22;17.50;86.40
34644;DHT22;26931;43.498;-1.506;2022-12-29T11:44:49;17.50;86.10
34644;DHT22;26931;43.498;-1.506;2022-12-29T11:47:22;17.60;85.90
34644;DHT22;26931;43.498;-1.506;2022-12-29T11:49:49;17.60;85.70
34644;DHT22;26931;43.498;-1.506;2022-12-29T11:52:16;17.60;85.50
34644;DHT22;26931;43.498;-1.506;2022-12-29T11:54:41;17.70;85.30
34644;DHT22;26931;43.498;-1.506;2022-12-29T11:57:14;17.70;85.00
34644;DHT22;26931;43.498;-1.506;2022-12-29T11:59:42;17.80;84.90
34644;DHT22;26931;43.498;-1.506;2022-12-29T12:04:47;17.80;84.30
34644;DHT22;26931;43.498;-1.506;2022-12-29T12:07:15;17.80;84.00
34644;DHT22;26931;43.498;-1.506;2022-12-29T12:09:57;17.90;84.00
34644;DHT22;26931;43.498;-1.506;2022-12-29T12:12:29;17.90;83.80
34644;DHT22;26931;43.498;-1.506;2022-12-29T12:14:56;17.90;83.70
34644;DHT22;26931;43.498;-1.506;2022-12-29T12:17:29;17.90;83.40
34644;DHT22;26931;43.498;-1.506;2022-12-29T12:22:31;17.90;83.00
34644;DHT22;26931;43.498;-1.506;2022-12-29T12:25:03;18.00;83.00
34644;DHT22;26931;43.498;-1.506;2022-12-29T12:27:33;17.90;83.00
34644;DHT22;26931;43.498;-1.506;2022-12-29T12:30:10;18.10;82.90
34644;DHT22;26931;43.498;-1.506;2022-12-29T12:32:48;17.90;82.50
34644;DHT22;26931;43.498;-1.506;2022-12-29T12:35:20;18.00;82.40
34644;DHT22;26931;43.498;-1.506;2022-12-29T12:40:23;17.80;82.10
34644;DHT22;26931;43.498;-1.506;2022-12-29T12:53:34;17.80;83.40
34644;DHT22;26931;43.498;-1.506;2022-12-29T12:56:10;17.80;83.50
34644;DHT22;26931;43.498;-1.506;2022-12-29T13:06:46;17.70;84.80
34644;DHT22;26931;43.498;-1.506;2022-12-29T13:14:16;17.70;86.60
34644;DHT22;26931;43.498;-1.506;2022-12-29T13:16:48;17.60;87.60
34644;DHT22;26931;43.498;-1.506;2022-12-29T13:19:19;17.70;88.70
34644;DHT22;26931;43.498;-1.506;2022-12-29T13:24:32;17.60;90.40
34644;DHT22;26931;43.498;-1.506;2022-12-29T13:29:31;17.50;91.80
34644;DHT22;26931;43.498;-1.506;2022-12-29T13:37:01;16.80;92.60
34644;DHT22;26931;43.498;-1.506;2022-12-29T13:39:32;16.50;92.80
34644;DHT22;26931;43.498;-1.506;2022-12-29T13:41:58;16.50;92.90
34644;DHT22;26931;43.498;-1.506;2022-12-29T13:44:35;16.20;93.00
34644;DHT22;26931;43.498;-1.506;2022-12-29T13:47:05;16.10;93.10
34644;DHT22;26931;43.498;-1.506;2022-12-29T13:49:32;16.00;93.30
34644;DHT22;26931;43.498;-1.506;2022-12-29T13:51:59;15.90;93.40
34644;DHT22;26931;43.498;-1.506;2022-12-29T13:59:57;15.80;93.80
34644;DHT22;26931;43.498;-1.506;2022-12-29T14:02:41;15.70;93.90
34644;DHT22;26931;43.498;-1.506;2022-12-29T14:07:46;15.60;94.20
34644;DHT22;26931;43.498;-1.506;2022-12-29T14:13:05;15.50;94.40
34644;DHT22;26931;43.498;-1.506;2022-12-29T14:15:37;15.40;94.60
34644;DHT22;26931;43.498;-1.506;2022-12-29T14:18:19;15.40;94.80
34644;DHT22;26931;43.498;-1.506;2022-12-29T14:20:53;15.30;95.00
34644;DHT22;26931;43.498;-1.506;2022-12-29T14:28:41;15.20;95.60
34644;DHT22;26931;43.498;-1.506;2022-12-29T14:33:33;15.10;95.80
34644;DHT22;26931;43.498;-1.506;2022-12-29T14:38:46;15.10;96.30
34644;DHT22;26931;43.498;-1.506;2022-12-29T14:41:15;15.00;96.00
34644;DHT22;26931;43.498;-1.506;2022-12-29T14:43:41;15.20;96.20
34644;DHT22;26931;43.498;-1.506;2022-12-29T14:46:16;15.10;96.20
34644;DHT22;26931;43.498;-1.506;2022-12-29T14:48:42;15.30;96.30
34644;DHT22;26931;43.498;-1.506;2022-12-29T14:51:18;15.10;96.40
34644;DHT22;26931;43.498;-1.506;2022-12-29T14:53:49;15.10;96.50
34644;DHT22;26931;43.498;-1.506;2022-12-29T14:56:16;15.10;96.50
34644;DHT22;26931;43.498;-1.506;2022-12-29T14:59:01;15.10;96.60
34644;DHT22;26931;43.498;-1.506;2022-12-29T15:01:45;15.20;96.60
34644;DHT22;26931;43.498;-1.506;2022-12-29T15:06:41;15.10;96.70
34644;DHT22;26931;43.498;-1.506;2022-12-29T15:09:24;15.10;96.70
34644;DHT22;26931;43.498;-1.506;2022-12-29T15:11:53;15.20;96.90
34644;DHT22;26931;43.498;-1.506;2022-12-29T15:14:28;15.10;97.00
34644;DHT22;26931;43.498;-1.506;2022-12-29T15:16:54;15.10;97.10
34644;DHT22;26931;43.498;-1.506;2022-12-29T15:19:20;15.10;97.20
34644;DHT22;26931;43.498;-1.506;2022-12-29T15:21:46;15.00;97.20
34644;DHT22;26931;43.498;-1.506;2022-12-29T15:24:12;15.10;97.20
34644;DHT22;26931;43.498;-1.506;2022-12-29T15:26:41;15.20;97.30
34644;DHT22;26931;43.498;-1.506;2022-12-29T15:31:51;15.10;97.50
34644;DHT22;26931;43.498;-1.506;2022-12-29T15:34:19;15.10;97.50
34644;DHT22;26931;43.498;-1.506;2022-12-29T15:36:46;15.10;97.50
34644;DHT22;26931;43.498;-1.506;2022-12-29T15:39:26;15.10;97.60
34644;DHT22;26931;43.498;-1.506;2022-12-29T15:41:55;15.00;97.70
34644;DHT22;26931;43.498;-1.506;2022-12-29T15:44:34;15.10;97.70
34644;DHT22;26931;43.498;-1.506;2022-12-29T15:47:02;15.00;97.80
34644;DHT22;26931;43.498;-1.506;2022-12-29T15:49:28;15.00;97.80
34644;DHT22;26931;43.498;-1.506;2022-12-29T15:51:54;15.00;98.00
34644;DHT22;26931;43.498;-1.506;2022-12-29T15:54:21;15.00;98.00
34644;DHT22;26931;43.498;-1.506;2022-12-29T15:56:48;15.00;98.10
34644;DHT22;26931;43.498;-1.506;2022-12-29T16:01:50;15.00;98.20
34644;DHT22;26931;43.498;-1.506;2022-12-29T16:04:16;15.10;98.30
34644;DHT22;26931;43.498;-1.506;2022-12-29T16:06:54;14.90;98.40
34644;DHT22;26931;43.498;-1.506;2022-12-29T16:11:56;14.80;98.50
34644;DHT22;26931;43.498;-1.506;2022-12-29T16:14:30;14.90;98.60
34644;DHT22;26931;43.498;-1.506;2022-12-29T16:16:58;14.80;98.70
34644;DHT22;26931;43.498;-1.506;2022-12-29T16:19:26;15.00;98.80
34644;DHT22;26931;43.498;-1.506;2022-12-29T16:21:54;15.10;98.80
34644;DHT22;26931;43.498;-1.506;2022-12-29T16:24:21;14.90;98.80
34644;DHT22;26931;43.498;-1.506;2022-12-29T16:26:59;14.80;98.90
34644;DHT22;26931;43.498;-1.506;2022-12-29T16:29:26;14.90;98.90
34644;DHT22;26931;43.498;-1.506;2022-12-29T16:31:54;14.80;98.90
34644;DHT22;26931;43.498;-1.506;2022-12-29T16:34:29;14.90;99.00
34644;DHT22;26931;43.498;-1.506;2022-12-29T16:36:57;14.80;99.00
34644;DHT22;26931;43.498;-1.506;2022-12-29T16:39:35;14.80;99.00
34644;DHT22;26931;43.498;-1.506;2022-12-29T16:44:46;14.80;99.10
34644;DHT22;26931;43.498;-1.506;2022-12-29T16:49:42;14.80;99.20
34644;DHT22;26931;43.498;-1.506;2022-12-29T16:52:18;14.80;99.20
34644;DHT22;26931;43.498;-1.506;2022-12-29T16:54:49;14.80;99.20
34644;DHT22;26931;43.498;-1.506;2022-12-29T16:57:20;15.00;99.20
34644;DHT22;26931;43.498;-1.506;2022-12-29T16:59:46;14.70;99.20
34644;DHT22;26931;43.498;-1.506;2022-12-29T17:02:18;14.70;99.20
34644;DHT22;26931;43.498;-1.506;2022-12-29T17:04:45;14.70;99.20
34644;DHT22;26931;43.498;-1.506;2022-12-29T17:07:15;14.70;99.20
34644;DHT22;26931;43.498;-1.506;2022-12-29T17:09:41;14.60;99.30
34644;DHT22;26931;43.498;-1.506;2022-12-29T17:12:07;14.70;99.30
34644;DHT22;26931;43.498;-1.506;2022-12-29T17:14:53;14.70;99.40
34644;DHT22;26931;43.498;-1.506;2022-12-29T17:17:24;14.70;99.40
34644;DHT22;26931;43.498;-1.506;2022-12-29T17:19:52;14.70;99.40
34644;DHT22;26931;43.498;-1.506;2022-12-29T17:22:21;14.70;99.50
34644;DHT22;26931;43.498;-1.506;2022-12-29T17:24:49;14.70;99.50
34644;DHT22;26931;43.498;-1.506;2022-12-29T17:27:26;14.70;99.50
34644;DHT22;26931;43.498;-1.506;2022-12-29T17:29:54;14.60;99.50
34644;DHT22;26931;43.498;-1.506;2022-12-29T17:32:21;14.60;99.50
34644;DHT22;26931;43.498;-1.506;2022-12-29T17:34:47;14.70;99.50
34644;DHT22;26931;43.498;-1.506;2022-12-29T17:39:44;14.60;99.60
34644;DHT22;26931;43.498;-1.506;2022-12-29T17:42:10;14.80;99.70
34644;DHT22;26931;43.498;-1.506;2022-12-29T17:44:36;14.50;99.60
34644;DHT22;26931;43.498;-1.506;2022-12-29T17:47:02;14.60;99.70
34644;DHT22;26931;43.498;-1.506;2022-12-29T17:49:28;14.60;99.70
34644;DHT22;26931;43.498;-1.506;2022-12-29T17:51:54;14.60;99.70
34644;DHT22;26931;43.498;-1.506;2022-12-29T17:54:21;14.60;99.80
34644;DHT22;26931;43.498;-1.506;2022-12-29T17:56:47;14.50;99.80
34644;DHT22;26931;43.498;-1.506;2022-12-29T17:59:13;14.60;99.80
34644;DHT22;26931;43.498;-1.506;2022-12-29T18:01:40;14.60;99.90
34644;DHT22;26931;43.498;-1.506;2022-12-29T18:04:06;14.70;99.90
34644;DHT22;26931;43.498;-1.506;2022-12-29T18:06:32;14.50;99.90
34644;DHT22;26931;43.498;-1.506;2022-12-29T18:08:58;14.50;99.90